Time;durP1;ratioP1;P1;durP2;ratioP2;P2;SDS_P1;SDS_P2;PMS_P1;PMS_P2;Temp;Humidity;BMP_temperature;BMP_pressure;BME280_temperature;BME280_humidity;BME280_pressure;Samples;Min_cycle;Max_cycle;Signal;HPM_P1;HPM_P2
2022/04/20 00:03:02;;;;;;;2.13;1.87;;;10.10;58.50;;;;;;10441349;28;20682;-70
2022/04/20 00:08:06;;;;;;;3.40;1.90;;;10.00;58.70;;;;;;10433571;28;20590;-70
2022/04/20 00:13:06;;;;;;;3.47;1.60;;;10.00;58.90;;;;;;10423985;28;20691;-70
2022/04/20 00:18:07;;;;;;;4.23;2.00;;;9.90;59.10;;;;;;10437311;28;20273;-70
2022/04/20 00:23:07;;;;;;;2.83;2.53;;;9.80;59.50;;;;;;10410404;28;20235;-69
2022/04/20 00:28:08;;;;;;;4.33;2.27;;;9.80;59.60;;;;;;10437372;28;20726;-69
2022/04/20 00:33:12;;;;;;;2.87;1.90;;;9.80;59.90;;;;;;10427387;28;20259;-71
2022/04/20 00:38:12;;;;;;;4.10;2.07;;;9.70;60.10;;;;;;10430154;28;20765;-70
2022/04/20 00:43:13;;;;;;;5.47;2.17;;;9.60;61.40;;;;;;10433818;28;20230;-70
2022/04/20 00:48:15;;;;;;;5.43;2.10;;;9.50;61.20;;;;;;10428353;28;20754;-71
2022/04/20 00:53:16;;;;;;;3.53;2.20;;;9.40;61.50;;;;;;10424127;28;20236;-70
2022/04/20 00:58:16;;;;;;;3.97;2.07;;;9.40;61.80;;;;;;10435475;28;20678;-70
2022/04/20 01:03:17;;;;;;;5.90;2.17;;;9.30;62.10;;;;;;10436125;28;20224;-70
2022/04/20 01:08:19;;;;;;;3.10;1.83;;;9.30;62.30;;;;;;10434250;28;20314;-71
2022/04/20 01:13:19;;;;;;;3.37;1.90;;;9.20;62.40;;;;;;10427686;28;20270;-70
2022/04/20 01:18:22;;;;;;;2.47;2.00;;;9.10;62.80;;;;;;10432601;28;20748;-70
2022/04/20 01:23:23;;;;;;;4.30;2.20;;;9.10;62.90;;;;;;10425455;28;20231;-69
2022/04/20 01:28:24;;;;;;;3.43;2.27;;;9.10;63.10;;;;;;10426415;28;20881;-69
2022/04/20 01:33:24;;;;;;;2.00;1.77;;;9.10;63.30;;;;;;10433859;28;20231;-69
2022/04/20 01:38:26;;;;;;;2.20;1.97;;;9.00;63.60;;;;;;10426107;28;20243;-70
2022/04/20 01:43:27;;;;;;;3.07;2.00;;;8.90;64.00;;;;;;10409100;28;20225;-72
2022/04/20 01:48:27;;;;;;;2.70;2.00;;;8.90;64.80;;;;;;10425698;28;20749;-71
2022/04/20 01:53:30;;;;;;;2.63;1.87;;;8.80;65.10;;;;;;10437446;28;20243;-70
2022/04/20 01:58:30;;;;;;;2.70;2.00;;;8.70;65.10;;;;;;10425923;28;20263;-70
2022/04/20 02:03:31;;;;;;;3.00;2.13;;;8.60;65.60;;;;;;10425880;28;20232;-72
2022/04/20 02:08:31;;;;;;;3.33;2.00;;;8.50;66.00;;;;;;10433836;28;20212;-69
2022/04/20 02:13:32;;;;;;;3.60;2.13;;;8.50;66.00;;;;;;10439524;28;20223;-71
2022/04/20 02:18:34;;;;;;;5.50;2.20;;;8.40;66.20;;;;;;10428169;28;20370;-71
2022/04/20 02:23:35;;;;;;;4.17;2.30;;;8.40;66.50;;;;;;10433381;28;20221;-70
2022/04/20 02:28:35;;;;;;;4.53;2.07;;;8.40;66.60;;;;;;10440693;28;20699;-71
2022/04/20 02:33:36;;;;;;;2.37;1.87;;;8.30;66.70;;;;;;10432293;28;20236;-71
2022/04/20 02:38:37;;;;;;;3.80;2.03;;;8.30;66.90;;;;;;10431919;28;20653;-71
2022/04/20 02:43:37;;;;;;;4.63;2.10;;;8.30;67.20;;;;;;10433241;28;20228;-72
2022/04/20 02:48:39;;;;;;;3.37;2.30;;;8.20;67.40;;;;;;10441081;28;20230;-71
2022/04/20 02:53:40;;;;;;;5.70;2.57;;;8.10;67.70;;;;;;10439592;28;20235;-71
2022/04/20 02:58:41;;;;;;;5.73;2.80;;;8.00;68.20;;;;;;10431579;28;20216;-71
2022/04/20 03:03:42;;;;;;;2.80;2.20;;;8.00;68.90;;;;;;10444518;28;20589;-72
2022/04/20 03:08:43;;;;;;;5.23;3.10;;;8.10;68.80;;;;;;10405275;28;20235;-71
2022/04/20 03:13:44;;;;;;;5.17;3.70;;;8.10;68.70;;;;;;10445588;28;20231;-71
2022/04/20 03:18:44;;;;;;;3.00;2.50;;;8.10;68.50;;;;;;10433639;28;20220;-72
2022/04/20 03:23:45;;;;;;;3.83;2.57;;;8.10;68.80;;;;;;10439852;28;20224;-72
2022/04/20 03:28:45;;;;;;;3.73;2.47;;;8.00;69.00;;;;;;10422048;28;20219;-72
2022/04/20 03:33:46;;;;;;;7.77;2.57;;;7.90;69.60;;;;;;10436258;28;20311;-72
2022/04/20 03:38:49;;;;;;;3.23;2.20;;;7.80;70.10;;;;;;10429585;28;20228;-72
2022/04/20 03:43:50;;;;;;;2.93;2.40;;;7.70;70.50;;;;;;10441117;28;20299;-71
2022/04/20 03:48:51;;;;;;;3.10;2.57;;;7.70;70.80;;;;;;10435134;28;20295;-71
2022/04/20 03:53:52;;;;;;;6.73;2.43;;;7.60;71.20;;;;;;10429304;28;20231;-70
2022/04/20 03:58:52;;;;;;;5.50;2.30;;;7.70;71.60;;;;;;10446489;28;20209;-70
2022/04/20 04:03:53;;;;;;;6.50;2.83;;;7.60;71.70;;;;;;10432214;28;20694;-73
2022/04/20 04:08:57;;;;;;;3.67;2.37;;;7.50;72.40;;;;;;10436635;28;20212;-70
2022/04/20 04:13:57;;;;;;;3.97;2.43;;;7.50;72.10;;;;;;10433506;28;20287;-69
2022/04/20 04:18:58;;;;;;;5.93;2.70;;;7.40;73.00;;;;;;10439723;28;20273;-72
2022/04/20 04:23:59;;;;;;;7.43;3.10;;;7.40;73.90;;;;;;10445352;28;20251;-73
2022/04/20 04:28:59;;;;;;;6.03;2.30;;;7.40;74.20;;;;;;10432367;28;20228;-71
2022/04/20 04:34:00;;;;;;;7.90;2.70;;;7.30;74.30;;;;;;10431734;28;20208;-70
2022/04/20 04:39:00;;;;;;;6.63;3.10;;;7.30;74.70;;;;;;10432194;28;20217;-71
2022/04/20 04:44:01;;;;;;;3.67;2.30;;;7.20;74.80;;;;;;10430401;28;20369;-70
2022/04/20 04:49:02;;;;;;;6.50;2.50;;;7.30;75.20;;;;;;10427297;28;20220;-70
2022/04/20 04:54:02;;;;;;;7.53;2.30;;;7.20;75.00;;;;;;10431204;28;20228;-70
2022/04/20 04:59:03;;;;;;;9.63;2.50;;;7.30;74.90;;;;;;10434185;28;20277;-72
2022/04/20 05:04:04;;;;;;;5.53;2.80;;;7.40;74.50;;;;;;10435832;28;20299;-71
2022/04/20 05:09:05;;;;;;;10.70;3.20;;;7.40;74.30;;;;;;10437288;28;20863;-71
2022/04/20 05:14:06;;;;;;;13.80;2.67;;;7.50;74.50;;;;;;10427994;28;20308;-71
2022/04/20 05:19:06;;;;;;;6.13;2.47;;;7.60;74.10;;;;;;10425959;28;20227;-71
2022/04/20 05:24:07;;;;;;;6.40;2.53;;;7.70;73.30;;;;;;10432091;28;20218;-71
2022/04/20 05:29:07;;;;;;;7.13;2.50;;;7.80;72.70;;;;;;10421293;28;20220;-70
2022/04/20 05:34:09;;;;;;;5.33;2.43;;;7.90;72.70;;;;;;10432537;28;20216;-71
2022/04/20 05:44:29;;;;;;;5.37;2.23;;;10.00;64.60;;;;;;10430327;28;20699;-71
2022/04/20 05:49:29;;;;;;;2.60;2.03;;;10.00;63.70;;;;;;10444115;28;20240;-71
2022/04/20 05:54:30;;;;;;;5.90;2.50;;;9.90;64.20;;;;;;10423430;28;20235;-71
2022/04/20 05:59:31;;;;;;;4.03;3.17;;;10.20;63.70;;;;;;10448762;28;20227;-71
2022/04/20 06:04:31;;;;;;;4.33;2.23;;;10.90;60.20;;;;;;10441161;28;20224;-72
2022/04/20 06:09:32;;;;;;;4.57;2.27;;;11.20;59.80;;;;;;10418768;28;20296;-70
2022/04/20 06:14:33;;;;;;;6.33;2.30;;;13.70;54.80;;;;;;10442773;28;20212;-70
2022/04/20 06:19:34;;;;;;;5.90;2.30;;;14.90;51.00;;;;;;10434879;28;20224;-73
2022/04/20 06:24:35;;;;;;;3.73;2.27;;;15.70;48.40;;;;;;10439172;28;20223;-73
2022/04/20 06:29:35;;;;;;;3.70;1.93;;;16.30;47.60;;;;;;10426107;28;20592;-73
2022/04/20 06:34:36;;;;;;;4.57;2.57;;;16.90;46.00;;;;;;10415926;28;20212;-73
2022/04/20 06:39:37;;;;;;;4.40;2.40;;;17.10;45.20;;;;;;10433656;28;20219;-72
2022/04/20 06:44:38;;;;;;;4.97;2.13;;;16.60;46.10;;;;;;10433501;28;20224;-73
2022/04/20 06:49:38;;;;;;;6.03;2.43;;;17.20;44.90;;;;;;10434005;28;20238;-73
2022/04/20 06:59:58;;;;;;;5.37;2.50;;;15.10;48.80;;;;;;10435773;28;20345;-71
2022/04/20 07:04:59;;;;;;;3.00;2.53;;;13.10;53.40;;;;;;10439435;28;20231;-71
2022/04/20 07:09:59;;;;;;;5.00;2.43;;;12.40;55.70;;;;;;10421043;28;20345;-70
2022/04/20 07:15:00;;;;;;;5.43;2.90;;;12.00;57.50;;;;;;10431795;28;20226;-72
2022/04/20 07:20:01;;;;;;;5.10;2.37;;;12.00;57.30;;;;;;10430232;28;20224;-72
2022/04/20 07:25:02;;;;;;;4.00;2.07;;;11.80;57.60;;;;;;10434995;28;20220;-71
2022/04/20 07:30:03;;;;;;;3.60;2.50;;;11.90;58.00;;;;;;10438977;28;20224;-71
2022/04/20 07:35:04;;;;;;;2.83;2.20;;;12.20;56.90;;;;;;10439037;28;20228;-72
2022/04/20 07:40:06;;;;;;;6.73;2.23;;;15.10;50.30;;;;;;10435366;28;20248;-72
2022/04/20 07:45:07;;;;;;;3.80;2.07;;;17.40;45.20;;;;;;10420310;28;20220;-73
2022/04/20 07:50:23;;;;;;;7.30;2.30;;;19.00;41.20;;;;;;10428443;28;20289;-72
2022/04/20 07:55:27;;;;;;;3.67;2.07;;;20.10;38.90;;;;;;10421383;28;20841;-72
2022/04/20 08:00:28;;;;;;;3.07;2.30;;;20.50;38.40;;;;;;10437738;28;20750;-74
2022/04/20 08:05:28;;;;;;;4.20;2.40;;;21.10;37.50;;;;;;10436793;28;20279;-70
2022/04/20 08:10:29;;;;;;;3.00;2.40;;;22.70;36.90;;;;;;10444216;28;20317;-71
2022/04/20 08:15:32;;;;;;;8.90;3.40;;;21.20;34.60;;;;;;10435634;28;20246;-70
2022/04/20 08:20:32;;;;;;;5.17;2.60;;;20.40;37.10;;;;;;10443302;28;20293;-71
2022/04/20 08:25:33;;;;;;;4.10;2.40;;;20.40;35.50;;;;;;10443952;28;20703;-72
2022/04/20 08:30:38;;;;;;;4.23;2.70;;;20.30;34.40;;;;;;10435088;28;20254;-72
2022/04/20 08:35:38;;;;;;;7.33;2.60;;;20.90;35.60;;;;;;10432206;28;20219;-70
2022/04/20 08:40:40;;;;;;;3.17;2.30;;;20.10;33.70;;;;;;10409259;28;20793;-70
2022/04/20 08:45:41;;;;;;;2.53;2.30;;;20.40;35.30;;;;;;10415812;28;20310;-71
2022/04/20 08:50:42;;;;;;;4.53;2.37;;;21.30;34.30;;;;;;10444088;28;20233;-72
2022/04/20 08:55:45;;;;;;;5.40;2.73;;;21.50;31.70;;;;;;10424063;28;20232;-72
2022/04/20 09:00:45;;;;;;;4.37;2.57;;;21.00;31.70;;;;;;10437195;28;20246;-71
2022/04/20 09:05:46;;;;;;;7.17;2.57;;;21.30;32.70;;;;;;10443666;28;20232;-71
2022/04/20 09:10:47;;;;;;;5.73;2.80;;;21.20;32.90;;;;;;10443189;28;20369;-69
2022/04/20 09:15:50;;;;;;;5.63;2.60;;;21.30;32.30;;;;;;10434725;28;20274;-70
2022/04/20 09:20:51;;;;;;;5.20;2.13;;;21.50;32.40;;;;;;10434557;28;20303;-73
2022/04/20 09:25:51;;;;;;;6.77;2.77;;;22.20;30.70;;;;;;10430408;28;20806;-71
2022/04/20 09:30:54;;;;;;;4.67;2.40;;;23.00;30.70;;;;;;10432014;28;20232;-73
2022/04/20 09:35:54;;;;;;;6.40;2.63;;;22.80;29.60;;;;;;10431478;28;20414;-70
2022/04/20 09:41:06;;;;;;;4.00;2.60;;;22.00;30.20;;;;;;10435892;28;20830;-69
2022/04/20 09:51:37;;;;;;;5.33;2.30;;;23.40;29.70;;;;;;10432327;28;20226;-67
2022/04/20 09:56:38;;;;;;;252.50;19.90;;;22.50;29.10;;;;;;10426301;28;20275;-70
2022/04/20 10:01:47;;;;;;;3.83;2.43;;;24.50;28.70;;;;;;10431789;28;20278;-68
2022/04/20 10:06:48;;;;;;;4.97;2.53;;;25.00;27.90;;;;;;10431303;28;20231;-69
2022/04/20 10:11:50;;;;;;;4.53;2.30;;;24.90;27.40;;;;;;10433288;28;20718;-69
2022/04/20 10:16:51;;;;;;;4.77;2.17;;;24.90;27.00;;;;;;10430693;28;20220;-69
2022/04/20 10:21:54;;;;;;;5.77;2.63;;;25.10;26.30;;;;;;10427806;28;20283;-69
2022/04/20 10:26:59;;;;;;;4.40;2.03;;;24.70;26.80;;;;;;10414416;28;20270;-69
2022/04/20 10:32:19;;;;;;;2.90;2.10;;;25.60;26.10;;;;;;10428582;28;20695;-69
2022/04/20 10:37:25;;;;;;;5.00;2.97;;;25.20;26.40;;;;;;10439726;28;20275;-70
2022/04/20 10:42:27;;;;;;;5.17;2.47;;;25.90;25.80;;;;;;10419515;28;20216;-69
2022/04/20 10:47:35;;;;;;;6.53;2.07;;;25.30;25.20;;;;;;10447676;28;20239;-69
2022/04/20 10:52:37;;;;;;;5.70;2.43;;;25.30;24.90;;;;;;10427980;28;20259;-68
2022/04/20 10:57:42;;;;;;;4.97;1.90;;;24.40;24.70;;;;;;10437411;28;20216;-71
2022/04/20 11:02:51;;;;;;;2.67;2.30;;;24.70;25.10;;;;;;10440536;28;20223;-68
2022/04/20 11:08:14;;;;;;;2.77;2.20;;;21.50;29.30;;;;;;10430664;28;20216;-68
2022/04/20 11:19:32;;;;;;;3.30;2.00;;;18.90;31.80;;;;;;10433527;28;20299;-69
2022/04/20 11:24:33;;;;;;;4.87;1.97;;;17.80;32.20;;;;;;10317845;28;20221;-68
2022/04/20 11:29:34;;;;;;;3.73;2.00;;;17.60;34.00;;;;;;10394991;28;20643;-71
2022/04/20 11:34:36;;;;;;;4.10;2.50;;;17.70;33.20;;;;;;10431382;28;20227;-71
2022/04/20 11:39:37;;;;;;;3.67;2.30;;;17.60;34.50;;;;;;10443562;28;20222;-69
2022/04/20 11:44:40;;;;;;;4.80;2.40;;;17.40;34.60;;;;;;10435833;28;20219;-71
2022/04/20 11:49:44;;;;;;;3.03;1.97;;;17.40;34.30;;;;;;10437890;28;20227;-70
2022/04/20 11:54:46;;;;;;;2.00;1.80;;;17.30;34.20;;;;;;10431601;28;20230;-70
2022/04/20 11:59:49;;;;;;;2.43;1.80;;;17.30;34.70;;;;;;10435236;28;20302;-71
2022/04/20 12:05:09;;;;;;;4.07;2.10;;;17.20;36.20;;;;;;10431047;28;20230;-70
2022/04/20 12:10:10;;;;;;;2.20;1.73;;;17.20;35.40;;;;;;10410119;28;20239;-70
2022/04/20 12:15:11;;;;;;;4.43;2.00;;;17.20;33.70;;;;;;10427594;28;20233;-70
2022/04/20 12:20:12;;;;;;;2.80;1.70;;;17.10;35.40;;;;;;10412430;28;20183;-69
2022/04/20 12:25:19;;;;;;;2.10;1.83;;;17.10;32.90;;;;;;10431316;28;20187;-69
2022/04/20 12:30:45;;;;;;;6.87;2.20;;;17.10;32.80;;;;;;10440135;28;20642;-70
2022/04/20 12:35:58;;;;;;;3.83;1.90;;;16.70;33.60;;;;;;10435479;28;20262;-71
2022/04/20 12:40:58;;;;;;;3.23;1.77;;;16.60;33.90;;;;;;10431575;28;20284;-71
2022/04/20 12:46:14;;;;;;;3.73;2.13;;;16.60;34.10;;;;;;10430386;28;20299;-70
2022/04/20 12:51:23;;;;;;;2.17;1.80;;;16.90;34.80;;;;;;10432736;28;20279;-70
2022/04/20 13:02:01;;;;;;;2.90;2.33;;;17.00;34.10;;;;;;10436968;28;20226;-68
2022/04/20 13:07:03;;;;;;;2.57;1.97;;;17.00;34.30;;;;;;10426820;28;20302;-70
2022/04/20 13:12:04;;;;;;;3.57;2.47;;;17.00;33.50;;;;;;10430383;28;20251;-72
2022/04/20 13:17:09;;;;;;;5.67;2.10;;;17.10;34.20;;;;;;10425702;28;20232;-71
2022/04/20 13:22:10;;;;;;;2.73;2.10;;;17.10;34.00;;;;;;10431139;28;20227;-71
2022/04/20 13:32:30;;;;;;;3.20;2.20;;;16.90;35.10;;;;;;10425918;28;20227;-67
2022/04/20 13:37:35;;;;;;;2.37;1.90;;;16.80;35.80;;;;;;10444336;28;20215;-68
2022/04/20 13:42:36;;;;;;;2.57;1.90;;;17.00;36.30;;;;;;10427698;28;20222;-69
2022/04/20 13:47:36;;;;;;;3.53;1.90;;;16.80;36.90;;;;;;10422537;28;20231;-68
2022/04/20 13:52:38;;;;;;;2.93;1.67;;;16.90;37.10;;;;;;10438655;28;20237;-68
2022/04/20 13:57:39;;;;;;;4.07;2.20;;;17.10;37.20;;;;;;10433218;28;20224;-70
2022/04/20 14:02:41;;;;;;;2.50;1.63;;;17.20;36.60;;;;;;10419979;28;20278;-70
2022/04/20 14:07:42;;;;;;;2.97;1.87;;;17.10;37.50;;;;;;10432284;28;20227;-70
2022/04/20 14:12:42;;;;;;;1.97;1.67;;;17.10;37.70;;;;;;10447553;28;20276;-70
2022/04/20 14:17:44;;;;;;;5.60;2.00;;;17.10;39.00;;;;;;10440277;28;20260;-71
2022/04/20 14:22:45;;;;;;;5.60;2.00;;;17.00;37.90;;;;;;10456366;28;20585;-69
2022/04/20 14:33:05;;;;;;;3.37;1.47;;;16.90;38.70;;;;;;10450345;28;20235;-70
2022/04/20 14:38:06;;;;;;;2.43;1.90;;;17.00;39.50;;;;;;10422733;28;20238;-69
2022/04/20 14:43:07;;;;;;;2.30;1.50;;;17.10;39.30;;;;;;10422905;28;20279;-70
2022/04/20 14:48:07;;;;;;;1.80;1.67;;;17.30;39.50;;;;;;10408812;28;20315;-71
2022/04/20 14:53:08;;;;;;;6.87;1.63;;;17.30;39.20;;;;;;10418827;28;20234;-72
2022/04/20 14:58:09;;;;;;;3.27;1.57;;;17.30;40.00;;;;;;10436398;28;20223;-69
2022/04/20 15:03:09;;;;;;;4.10;1.60;;;17.30;40.20;;;;;;10425697;28;20232;-70
2022/04/20 15:08:11;;;;;;;2.77;1.63;;;17.20;40.70;;;;;;10434484;28;20228;-72
2022/04/20 15:13:24;;;;;;;3.40;2.07;;;17.20;40.60;;;;;;10420763;28;20325;-79
2022/04/20 15:18:24;;;;;;;2.10;1.70;;;17.20;40.20;;;;;;10412700;28;20235;-70
2022/04/20 15:23:27;;;;;;;1.80;1.63;;;17.30;40.80;;;;;;10442793;28;20220;-71
2022/04/20 15:28:27;;;;;;;3.23;1.70;;;17.40;41.10;;;;;;10433105;28;20250;-72
2022/04/20 15:33:28;;;;;;;3.00;1.50;;;17.30;41.40;;;;;;10450112;28;20280;-72
2022/04/20 15:38:28;;;;;;;3.70;1.67;;;17.20;41.80;;;;;;10450353;28;20229;-72
2022/04/20 15:43:33;;;;;;;3.00;1.83;;;17.30;41.90;;;;;;10429298;28;20224;-70
2022/04/20 15:48:35;;;;;;;2.17;1.83;;;17.30;41.40;;;;;;10447570;28;20224;-71
2022/04/20 15:53:36;;;;;;;2.63;1.73;;;17.30;42.40;;;;;;10425073;28;20240;-72
2022/04/20 16:03:56;;;;;;;2.43;1.43;;;17.20;42.70;;;;;;10448597;28;20209;-72
2022/04/20 16:09:00;;;;;;;3.07;1.70;;;17.20;42.70;;;;;;10447241;28;20212;-70
2022/04/20 16:14:00;;;;;;;1.70;1.50;;;17.20;42.60;;;;;;10451823;28;20251;-71
2022/04/20 16:19:02;;;;;;;2.50;1.70;;;17.10;43.00;;;;;;10424043;28;20254;-71
2022/04/20 16:24:03;;;;;;;1.80;1.60;;;17.20;42.90;;;;;;10445443;28;20217;-71
2022/04/20 16:29:04;;;;;;;5.90;1.87;;;17.10;43.40;;;;;;10445347;28;20218;-70
2022/04/20 16:34:04;;;;;;;4.17;1.77;;;17.10;43.30;;;;;;10418770;28;20225;-71
2022/04/20 16:39:05;;;;;;;2.77;1.80;;;17.10;44.00;;;;;;10413755;28;20298;-68
2022/04/20 16:44:06;;;;;;;2.53;2.20;;;17.10;44.20;;;;;;10430128;28;20259;-69
2022/04/20 16:49:09;;;;;;;3.87;1.83;;;17.10;44.60;;;;;;10431040;28;20299;-70
2022/04/20 16:54:10;;;;;;;1.87;1.70;;;17.10;44.80;;;;;;10445660;28;20242;-69
2022/04/20 16:59:10;;;;;;;4.50;2.00;;;17.10;46.60;;;;;;10431949;28;20217;-71
2022/04/20 17:04:15;;;;;;;4.93;1.77;;;17.10;47.00;;;;;;10432627;28;20309;-71
2022/04/20 17:09:15;;;;;;;3.57;1.47;;;17.20;44.50;;;;;;10410671;28;20641;-70
2022/04/20 17:14:16;;;;;;;3.00;1.70;;;17.20;44.40;;;;;;10432236;28;20308;-71
2022/04/20 17:19:17;;;;;;;2.27;1.70;;;17.30;44.80;;;;;;10436015;28;20851;-71
2022/04/20 17:29:37;;;;;;;2.30;1.63;;;17.70;44.60;;;;;;10436952;28;20306;-70
2022/04/20 17:34:39;;;;;;;4.57;1.67;;;17.60;45.00;;;;;;10425853;28;20306;-71
2022/04/20 17:39:40;;;;;;;3.20;1.60;;;17.40;46.50;;;;;;10428553;28;20294;-71
2022/04/20 17:44:40;;;;;;;8.30;1.80;;;17.30;47.10;;;;;;10417097;28;20630;-70
2022/04/20 17:49:41;;;;;;;4.90;1.83;;;17.20;47.50;;;;;;10428342;28;20220;-70
2022/04/20 17:54:42;;;;;;;4.37;1.60;;;17.10;47.40;;;;;;10431096;28;20776;-69
2022/04/20 17:59:42;;;;;;;3.60;1.63;;;17.10;48.50;;;;;;10441188;28;20219;-71
2022/04/20 18:04:43;;;;;;;3.80;1.77;;;17.00;48.50;;;;;;10432027;28;20643;-70
2022/04/20 18:09:43;;;;;;;11.53;2.10;;;16.80;49.80;;;;;;10424046;28;20215;-70
2022/04/20 18:14:45;;;;;;;7.67;1.77;;;16.40;51.40;;;;;;10442370;28;20222;-69
2022/04/20 18:19:46;;;;;;;8.43;2.20;;;16.00;52.50;;;;;;10440577;28;20789;-69
2022/04/20 18:24:47;;;;;;;8.10;2.23;;;15.70;53.70;;;;;;10418087;28;20230;-69
2022/04/20 18:29:47;;;;;;;7.20;2.47;;;15.50;54.50;;;;;;10451411;28;20651;-70
2022/04/20 18:34:48;;;;;;;7.27;2.33;;;15.30;55.40;;;;;;10440369;28;20215;-70
2022/04/20 18:39:50;;;;;;;6.53;2.40;;;15.10;56.20;;;;;;10455193;28;20224;-70
2022/04/20 18:44:51;;;;;;;5.77;2.23;;;14.90;56.70;;;;;;10450940;28;20211;-70
2022/04/20 18:49:51;;;;;;;3.27;2.10;;;14.70;57.20;;;;;;10455675;28;20614;-69
2022/04/20 19:00:15;;;;;;;2.13;1.93;;;14.50;58.20;;;;;;10436834;28;20212;-71
2022/04/20 19:05:15;;;;;;;3.13;2.00;;;14.30;58.60;;;;;;10447777;28;20187;-71
2022/04/20 19:10:17;;;;;;;2.30;1.47;;;14.30;58.90;;;;;;10433675;28;20216;-71
2022/04/20 19:15:17;;;;;;;2.40;1.50;;;14.20;59.30;;;;;;10447704;28;20184;-70
2022/04/20 19:20:19;;;;;;;2.40;1.77;;;14.10;59.60;;;;;;10440166;28;20184;-70
2022/04/20 19:25:20;;;;;;;5.37;1.80;;;14.00;60.00;;;;;;10427533;28;20826;-71
2022/04/20 19:30:21;;;;;;;3.43;2.10;;;13.90;60.50;;;;;;10434164;28;20564;-71
2022/04/20 19:35:23;;;;;;;3.50;1.83;;;13.80;61.20;;;;;;10455004;28;20194;-70
2022/04/20 19:40:23;;;;;;;2.50;1.83;;;13.70;61.90;;;;;;10453419;28;20192;-71
2022/04/20 19:45:29;;;;;;;3.30;1.63;;;13.70;62.40;;;;;;10454977;28;20227;-70
2022/04/20 19:50:30;;;;;;;2.23;1.90;;;13.60;62.90;;;;;;10440348;28;20228;-70
2022/04/20 19:55:31;;;;;;;2.10;1.60;;;13.50;63.40;;;;;;10431022;28;20910;-70
2022/04/20 20:00:32;;;;;;;2.23;2.03;;;13.40;63.70;;;;;;10430620;28;20233;-70
2022/04/20 20:05:33;;;;;;;2.10;1.90;;;13.40;64.20;;;;;;10407993;28;20219;-72
2022/04/20 20:10:37;;;;;;;3.10;2.50;;;13.30;64.60;;;;;;10427851;28;20228;-72
2022/04/20 20:15:38;;;;;;;4.00;1.80;;;13.20;65.10;;;;;;10438547;28;20303;-71
2022/04/20 20:20:38;;;;;;;2.53;2.00;;;13.20;65.40;;;;;;10420298;28;20310;-70
2022/04/20 20:31:02;;;;;;;2.63;1.80;;;13.00;66.00;;;;;;10429818;28;20240;-70
2022/04/20 20:36:03;;;;;;;3.50;1.90;;;12.90;66.50;;;;;;10434806;28;20224;-71
2022/04/20 20:41:04;;;;;;;6.23;1.90;;;12.80;66.90;;;;;;10433512;28;20228;-71
2022/04/20 20:46:05;;;;;;;2.60;2.00;;;12.70;67.30;;;;;;10432924;28;20302;-69
2022/04/20 20:51:06;;;;;;;3.67;1.70;;;12.60;68.00;;;;;;10421281;28;20721;-70
2022/04/20 20:56:07;;;;;;;4.30;2.17;;;12.50;68.40;;;;;;10427766;28;20692;-70
2022/04/20 21:01:08;;;;;;;12.13;3.93;;;12.50;69.90;;;;;;10430361;28;20229;-69
2022/04/20 21:06:09;;;;;;;8.33;3.00;;;12.40;69.50;;;;;;10433395;28;20328;-70
2022/04/20 21:11:10;;;;;;;6.50;2.70;;;12.40;69.80;;;;;;10412249;28;20296;-70
2022/04/20 21:16:11;;;;;;;6.20;2.23;;;12.30;70.00;;;;;;10418834;28;20744;-71
2022/04/20 21:21:12;;;;;;;3.53;2.20;;;12.20;70.50;;;;;;10437041;28;20273;-69
2022/04/20 21:26:14;;;;;;;4.70;2.00;;;12.10;71.10;;;;;;10416406;28;20224;-71
2022/04/20 21:31:15;;;;;;;3.27;2.00;;;12.10;73.50;;;;;;10430865;28;20282;-69
2022/04/20 21:36:16;;;;;;;3.73;2.00;;;12.00;73.20;;;;;;10441626;28;20298;-72
2022/04/20 21:41:17;;;;;;;3.67;2.10;;;12.00;73.50;;;;;;10429284;28;20283;-70
2022/04/20 21:46:18;;;;;;;3.07;2.10;;;11.90;73.50;;;;;;10420860;28;20213;-69
2022/04/20 21:51:21;;;;;;;3.03;2.20;;;11.70;73.20;;;;;;10428040;28;20757;-72
2022/04/20 21:56:22;;;;;;;5.93;2.20;;;11.70;73.40;;;;;;10441544;28;20234;-70
2022/04/20 22:01:24;;;;;;;3.57;2.17;;;11.60;73.50;;;;;;10416950;28;20216;-70
2022/04/20 22:11:58;;;;;;;3.27;2.63;;;11.50;73.90;;;;;;10445022;28;20224;-71
2022/04/20 22:17:05;;;;;;;5.67;2.70;;;11.40;74.00;;;;;;10428982;28;20220;-71
2022/04/20 22:22:09;;;;;;;4.13;2.63;;;11.40;74.40;;;;;;10434242;28;20221;-72
2022/04/20 22:27:10;;;;;;;4.63;2.40;;;11.40;74.80;;;;;;10431992;28;20645;-72
2022/04/20 22:32:11;;;;;;;3.80;2.57;;;11.30;75.20;;;;;;10407864;28;20243;-71
2022/04/20 22:37:15;;;;;;;4.33;2.40;;;11.20;75.60;;;;;;10428401;28;20228;-71
2022/04/20 22:42:20;;;;;;;3.73;2.67;;;11.20;76.90;;;;;;10444524;28;20224;-72
2022/04/20 22:47:22;;;;;;;3.67;2.60;;;11.10;76.40;;;;;;10430428;28;20215;-71
2022/04/20 22:52:25;;;;;;;3.03;2.53;;;11.00;77.00;;;;;;10440718;28;20263;-71
2022/04/20 22:57:27;;;;;;;4.47;2.40;;;11.00;77.40;;;;;;10434107;28;20278;-70
2022/04/20 23:02:28;;;;;;;3.77;2.70;;;10.90;77.60;;;;;;10415971;28;20244;-72
2022/04/20 23:07:29;;;;;;;3.40;2.60;;;10.90;77.90;;;;;;10431363;28;20220;-69
2022/04/20 23:12:32;;;;;;;3.33;2.60;;;10.80;78.20;;;;;;10432439;28;20254;-69
2022/04/20 23:17:36;;;;;;;4.33;3.00;;;10.80;78.40;;;;;;10437590;28;20251;-70
2022/04/20 23:22:38;;;;;;;7.97;3.87;;;10.80;78.90;;;;;;10421879;28;20267;-71
2022/04/20 23:33:01;;;;;;;6.93;3.23;;;10.70;79.70;;;;;;10439054;28;20228;-73
2022/04/20 23:38:03;;;;;;;4.40;2.97;;;10.60;80.40;;;;;;10432277;28;20224;-70
2022/04/20 23:43:04;;;;;;;7.37;4.10;;;10.50;80.80;;;;;;10438990;28;20702;-69
2022/04/20 23:48:06;;;;;;;4.83;3.00;;;10.50;81.50;;;;;;10415880;28;20240;-70
2022/04/20 23:53:07;;;;;;;5.50;3.60;;;10.40;81.60;;;;;;10429435;28;20224;-70
2022/04/20 23:58:08;;;;;;;7.57;4.30;;;10.40;83.20;;;;;;10435831;28;20770;-70
